Iliamna Airport Iliamna US
ICAO: PAIL
IATA:
Category: Medium
Scheduled Services:

Elevation: 192 ft
TransAlt. 18000 ft.

Airport Communications:
ASOS:134.95
ATIS:134.95
ANCHORAGE CNTR:118.8
CTAF:123.6
RDO:123.6
KENAI RDO:121.2
KENAI RDO:122.2

PAIL Zoom In..

If you have problems with the map follow the link
https://www.worldairports.se/pages/airport.php?
ICAO=PAIL

Runways:

(A) RW 07 length 5086 ft width 100 ft
---- / hdg 76

(B) RW 17 length 4800 ft width 100 ft
---- / hdg 172

(C) RW 25 length 5086 ft width 100 ft
---- / hdg 256

(D) RW 35 length 4800 ft width 100 ft
---- / hdg 352

Location; PAIL
Day. 22 / Time. 11.53 Zulu
* Altimeter: 29.41
* Temperature: 08° c. 46.4°f.
* Wind from: 060° Speed 08 kn.
Dewpoint: 05° c.
Visibility: 10 Statute Miles.
Clouds: Few 3500 ft.
Clouds: Broken 4900 ft.
Clouds: Overcast 6500 ft.
Conditions: Light Rain.

PAIL 221153Z AUTO 06008KT 10SM -RA FEW035 BKN049 OVC065 08/05 A2941 RMK AO2 RAB30 SLP962 P0000 60000 T00780050 10094 20078 51004 TSNO


Wind From 060°
Speed 08 kn.

 
 
jpsmedia.com for Web Design worldairports.se 2018   terms of use